»·PEaware :: N427LJ KOAK-KDVO

N427LJ :: KOAK-KDVO

FLIGHT INFORMATION

Flight Status: Arrived
Operator: Privately registered:
United States
More flights under this callsign
Pilot: Anonymous 27948 (27948)
Aircraft: CESSNA 172 SKYHAWK
(C172)
More flights by this aircraft type
Origin: KOAK Metro Oakland Intl
United States
Destination: KDVO Gnoss
United States
More flights between these airports :: More routes between these airports
Route: RAIDR
File this flight plan on PilotEdge
Remarks:
Altitude:
(Current/Filed)
4,000ft
Speed:
(Current/Filed)
120kts
Departed: 23-Aug-20 12:57 PM
Arrived: 23-Aug-20 01:44 PM
Distance/Time
Traveled:
30nm/0:47
Distance/Time
To Go:
Arrived

Flight Plot

Page will automatically refresh every two minutes.

Flight plan parsing failed; only flown route is shown


Map Options




Map Legend


Flown Route
Filed Route
Departure Airport
Arrival Airport
Navaid (VOR, NDB)
Fix

Horizontal Profiles

Position Reports

Time Latitude Longitude Heading Altitude Ground
Speed
23-Aug-20 12:40 37.727652 -122.208362 307 7ft 0kts
23-Aug-20 12:41 37.727652 -122.208362 307 7ft 0kts
23-Aug-20 12:42 37.727652 -122.208362 307 7ft 0kts
23-Aug-20 12:43 37.727653 -122.208363 306 7ft 0kts
23-Aug-20 12:44 37.727652 -122.208362 307 7ft 0kts
23-Aug-20 12:45 37.727652 -122.208362 307 7ft 0kts
23-Aug-20 12:46 37.727652 -122.208362 307 7ft 0kts
23-Aug-20 12:47 37.727652 -122.208362 307 7ft 0kts
23-Aug-20 12:48 37.727652 -122.208362 307 7ft 0kts
23-Aug-20 12:49 37.727652 -122.208362 307 7ft 0kts
23-Aug-20 12:50 37.727652 -122.208362 307 7ft 0kts
23-Aug-20 12:51 37.727652 -122.208362 307 7ft 0kts
23-Aug-20 12:52 37.727660 -122.208376 305 7ft 1kts
23-Aug-20 12:53 37.726849 -122.207731 111 7ft 11kts
23-Aug-20 12:54 37.725795 -122.204641 130 7ft 0kts
23-Aug-20 12:55 37.725795 -122.204641 130 7ft 0kts
23-Aug-20 12:56 37.726202 -122.208942 291 9ft 74kts
23-Aug-20 12:57 37.739496 -122.229023 327 1081ft 77kts
23-Aug-20 12:58 37.758350 -122.244153 327 2082ft 82kts
23-Aug-20 12:59 37.777629 -122.259606 327 3008ft 87kts
23-Aug-20 13:00 37.802484 -122.279680 320 3046ft 114kts
23-Aug-20 13:01 37.823540 -122.305327 316 3405ft 101kts
23-Aug-20 13:02 37.843430 -122.329319 316 3808ft 93kts
23-Aug-20 13:03 37.862693 -122.352498 316 4047ft 102kts
23-Aug-20 13:04 37.884603 -122.378843 316 4046ft 112kts
23-Aug-20 13:05 37.907879 -122.406893 316 4046ft 118kts
23-Aug-20 13:06 37.932262 -122.436301 316 4045ft 120kts
23-Aug-20 13:07 37.956486 -122.465548 316 4045ft 120kts
23-Aug-20 13:08 37.980796 -122.494744 321 4045ft 120kts
23-Aug-20 13:09 38.007611 -122.520026 323 4045ft 119kts
23-Aug-20 13:10 38.034007 -122.544748 323 4045ft 117kts
23-Aug-20 13:11 38.060251 -122.569328 323 4045ft 117kts
23-Aug-20 13:12 38.086718 -122.594119 323 4045ft 117kts
23-Aug-20 13:13 38.113075 -122.618808 323 4045ft 117kts
23-Aug-20 13:14 38.139264 -122.643339 323 4045ft 117kts
23-Aug-20 13:15 38.165533 -122.667946 323 4045ft 117kts
23-Aug-20 13:16 38.191818 -122.692569 323 4045ft 117kts
23-Aug-20 13:17 38.218130 -122.717217 323 4045ft 117kts
23-Aug-20 13:18 38.244353 -122.741782 323 4045ft 117kts
23-Aug-20 13:19 38.270614 -122.766384 323 4045ft 117kts
23-Aug-20 13:20 38.296850 -122.790962 323 4045ft 117kts
23-Aug-20 13:21 38.323112 -122.815566 323 4045ft 117kts
23-Aug-20 13:22 38.349383 -122.840178 323 4045ft 117kts
23-Aug-20 13:23 38.375747 -122.864878 323 4045ft 117kts
23-Aug-20 13:24 38.402032 -122.889506 323 4045ft 117kts
23-Aug-20 13:25 38.427894 -122.912947 341 4041ft 113kts
23-Aug-20 13:26 38.438694 -122.885561 100 4045ft 112kts
23-Aug-20 13:27 38.437316 -122.846486 89 4045ft 107kts
23-Aug-20 13:28 38.437662 -122.806852 89 4046ft 113kts
23-Aug-20 13:29 38.437977 -122.766614 92 4044ft 114kts
23-Aug-20 13:30 38.418956 -122.735680 133 3812ft 107kts
23-Aug-20 13:31 38.398456 -122.708169 133 3060ft 101kts
23-Aug-20 13:32 38.380243 -122.683617 133 3045ft 92kts
23-Aug-20 13:33 38.362762 -122.660018 133 3045ft 91kts
23-Aug-20 13:34 38.344207 -122.638061 149 3045ft 91kts
23-Aug-20 13:35 38.319489 -122.625497 161 3044ft 98kts
23-Aug-20 13:36 38.294427 -122.615732 162 3045ft 93kts
23-Aug-20 13:37 38.269679 -122.606337 163 2978ft 92kts
23-Aug-20 13:38 38.245925 -122.597362 163 2447ft 90kts
23-Aug-20 13:40 38.222696 -122.588575 163 1885ft 85kts
23-Aug-20 13:41 38.201073 -122.580420 163 1357ft 80kts
23-Aug-20 13:42 38.179571 -122.572326 163 835ft 78kts
23-Aug-20 13:43 38.159174 -122.565536 169 354ft 72kts
23-Aug-20 13:44 38.143254 -122.556870 151 7ft 27kts

Navigation Log

Ident Type
Flight plan parsing failed, navigation log unavailable